createdAt,value
2023-02-15T00:01:20.888Z,47.48
2023-02-15T00:03:48.702Z,47.38
2023-02-15T00:06:15.033Z,47.46
2023-02-15T00:08:41.407Z,47.39
2023-02-15T00:11:08.224Z,47.43
2023-02-15T00:13:36.342Z,47.50
2023-02-15T00:16:03.510Z,47.57
2023-02-15T00:18:30.219Z,47.90
2023-02-15T00:20:56.536Z,47.63
2023-02-15T00:23:22.877Z,47.59
2023-02-15T00:25:49.228Z,47.45
2023-02-15T00:28:15.561Z,47.41
2023-02-15T00:30:41.935Z,47.66
2023-02-15T00:33:08.342Z,47.55
2023-02-15T00:35:34.659Z,47.46
2023-02-15T00:38:01.001Z,47.52
2023-02-15T00:40:27.325Z,47.63
2023-02-15T00:42:55.086Z,47.45
2023-02-15T00:45:22.227Z,47.48
2023-02-15T00:47:48.574Z,47.41
2023-02-15T00:50:15.265Z,47.86
2023-02-15T00:52:41.769Z,47.71
2023-02-15T00:55:08.124Z,47.94
2023-02-15T00:57:34.456Z,47.81
2023-02-15T01:00:00.788Z,47.86
2023-02-15T01:02:27.119Z,47.57
2023-02-15T01:04:53.543Z,47.68
2023-02-15T01:07:19.938Z,47.75
2023-02-15T01:09:46.262Z,47.85
2023-02-15T01:12:12.583Z,47.72
2023-02-15T01:14:38.902Z,47.54
2023-02-15T01:17:05.244Z,47.57
2023-02-15T01:19:35.233Z,47.72
2023-02-15T01:22:01.571Z,47.77
2023-02-15T01:24:27.896Z,47.73
2023-02-15T01:26:54.243Z,47.80
2023-02-15T01:29:20.568Z,47.78
2023-02-15T01:31:47.046Z,47.76
2023-02-15T01:34:14.447Z,47.78
2023-02-15T01:36:40.771Z,47.89
2023-02-15T01:39:08.721Z,47.69
2023-02-15T01:41:35.063Z,47.62
2023-02-15T01:44:02.167Z,47.60
2023-02-15T01:46:30.090Z,47.65
2023-02-15T01:49:01.286Z,47.62
2023-02-15T01:51:28.344Z,47.61
2023-02-15T01:53:59.293Z,47.73
2023-02-15T01:56:26.139Z,47.67
2023-02-15T01:58:53.387Z,47.70
2023-02-15T02:01:19.793Z,47.72
2023-02-15T02:04:04.896Z,47.76
2023-02-15T02:06:31.613Z,47.74
2023-02-15T02:08:57.934Z,47.88
2023-02-15T02:11:24.771Z,47.96
2023-02-15T02:13:51.326Z,47.86
2023-02-15T02:16:23.678Z,47.87
2023-02-15T02:19:08.761Z,47.84
2023-02-15T02:21:55.374Z,48.02
2023-02-15T02:24:40.488Z,47.85
2023-02-15T02:27:23.903Z,47.82
2023-02-15T02:30:02.499Z,47.54
2023-02-15T02:32:32.568Z,47.58
2023-02-15T02:35:02.434Z,47.71
2023-02-15T02:37:31.784Z,47.76
2023-02-15T02:40:01.950Z,47.84
2023-02-15T02:42:36.243Z,47.94
2023-02-15T02:45:14.410Z,47.74
2023-02-15T02:47:56.273Z,47.73
2023-02-15T02:50:23.787Z,47.87
2023-02-15T02:52:50.821Z,47.86
2023-02-15T02:55:22.151Z,47.92
2023-02-15T02:58:15.097Z,47.83
2023-02-15T03:00:45.499Z,47.76
2023-02-15T03:03:17.792Z,47.71
2023-02-15T03:05:45.449Z,47.76
2023-02-15T03:08:13.130Z,47.65
2023-02-15T03:10:40.690Z,47.81
2023-02-15T03:13:07.061Z,47.78
2023-02-15T03:15:56.519Z,47.80
2023-02-15T03:18:23.700Z,47.71
2023-02-15T03:20:50.035Z,47.62
2023-02-15T03:23:17.945Z,47.68
2023-02-15T03:25:45.069Z,47.62
2023-02-15T03:28:16.584Z,48.00
2023-02-15T03:30:43.194Z,47.95
2023-02-15T03:33:09.548Z,47.72
2023-02-15T03:35:46.468Z,47.68
2023-02-15T03:38:12.812Z,47.62
2023-02-15T03:40:57.965Z,47.72
2023-02-15T03:43:24.232Z,47.83
2023-02-15T03:45:57.622Z,47.85
2023-02-15T03:48:34.405Z,47.73
2023-02-15T03:51:20.618Z,48.06
2023-02-15T03:53:46.953Z,47.89
2023-02-15T03:56:13.272Z,47.84
2023-02-15T03:58:58.462Z,47.79
2023-02-15T04:01:45.508Z,47.86
2023-02-15T04:04:22.276Z,48.19
2023-02-15T04:06:49.508Z,47.91
2023-02-15T04:09:34.694Z,47.85
2023-02-15T04:12:01.048Z,47.94
2023-02-15T04:14:45.848Z,48.29
2023-02-15T04:17:12.379Z,48.18
2023-02-15T04:19:57.473Z,47.87
2023-02-15T04:22:42.270Z,47.86
2023-02-15T04:25:14.548Z,47.69
2023-02-15T04:27:41.706Z,47.90
2023-02-15T04:30:08.405Z,47.92
2023-02-15T04:32:35.168Z,47.98
2023-02-15T04:35:01.522Z,47.85
2023-02-15T04:37:27.859Z,48.06
2023-02-15T04:39:54.170Z,47.96
2023-02-15T04:42:20.500Z,47.91
2023-02-15T04:44:46.905Z,48.04
2023-02-15T04:47:13.237Z,47.86
2023-02-15T04:49:39.555Z,48.04
2023-02-15T04:52:05.899Z,48.20
2023-02-15T04:54:32.262Z,47.96
2023-02-15T04:56:58.571Z,47.79
2023-02-15T04:59:24.892Z,47.85
2023-02-15T05:01:51.215Z,47.95
2023-02-15T05:04:17.609Z,48.12
2023-02-15T05:06:43.960Z,48.15
2023-02-15T05:09:11.542Z,48.18
2023-02-15T05:11:37.852Z,48.14
2023-02-15T05:14:04.192Z,48.07
2023-02-15T05:16:30.567Z,48.15
2023-02-15T05:18:56.914Z,48.24
2023-02-15T05:21:23.240Z,48.14
2023-02-15T05:23:49.564Z,48.17
2023-02-15T05:26:38.386Z,48.14
2023-02-15T05:29:04.718Z,48.18
2023-02-15T05:31:31.376Z,48.09
2023-02-15T05:33:58.033Z,48.27
2023-02-15T05:36:24.360Z,48.24
2023-02-15T05:38:50.693Z,47.98
2023-02-15T05:41:17.010Z,48.31
2023-02-15T05:43:43.318Z,49.06
2023-02-15T05:46:09.671Z,48.14
2023-02-15T05:48:36.024Z,48.39
2023-02-15T05:51:03.518Z,48.60
2023-02-15T05:53:30.013Z,44.23
2023-02-15T05:56:00.288Z,41.19
2023-02-15T05:58:27.569Z,40.68
2023-02-15T06:00:54.152Z,41.48
2023-02-15T06:03:20.551Z,45.64
2023-02-15T06:05:46.993Z,45.88
2023-02-15T06:08:13.343Z,46.00
2023-02-15T06:10:41.005Z,46.20
2023-02-15T06:13:07.363Z,46.33
2023-02-15T06:15:33.716Z,46.28
2023-02-15T06:18:00.063Z,46.63
2023-02-15T06:20:26.390Z,46.97
2023-02-15T06:22:52.730Z,46.91
2023-02-15T06:25:19.629Z,47.13
2023-02-15T06:27:45.978Z,47.16
2023-02-15T06:30:12.536Z,47.33
2023-02-15T06:32:38.900Z,47.47
2023-02-15T06:35:05.316Z,47.67
2023-02-15T06:37:31.688Z,47.70
2023-02-15T06:39:58.013Z,47.96
2023-02-15T06:42:24.562Z,47.70
2023-02-15T06:44:50.905Z,47.99
2023-02-15T06:47:17.230Z,47.99
2023-02-15T06:49:43.561Z,47.97
2023-02-15T06:52:09.892Z,48.41
2023-02-15T06:54:36.238Z,48.55
2023-02-15T06:57:02.558Z,48.58
2023-02-15T06:59:28.894Z,48.37
2023-02-15T07:01:55.266Z,48.53
2023-02-15T07:04:21.694Z,48.61
2023-02-15T07:06:48.023Z,49.22
2023-02-15T07:09:14.379Z,49.09
2023-02-15T07:11:59.482Z,49.21
2023-02-15T07:14:27.634Z,48.49
2023-02-15T07:16:55.548Z,47.78
2023-02-15T07:19:21.910Z,48.05
2023-02-15T07:21:48.244Z,47.66
2023-02-15T07:24:14.641Z,45.72
2023-02-15T07:26:40.959Z,44.97
2023-02-15T07:29:07.300Z,44.12
2023-02-15T07:31:33.657Z,43.41
2023-02-15T07:33:59.996Z,44.95
2023-02-15T07:36:26.372Z,42.98
2023-02-15T07:38:52.698Z,42.43
2023-02-15T07:41:19.012Z,42.49
2023-02-15T07:43:45.505Z,43.18
2023-02-15T07:46:15.661Z,45.12
2023-02-15T07:48:42.184Z,44.75
2023-02-15T07:51:08.925Z,44.69
2023-02-15T07:53:35.718Z,44.44
2023-02-15T07:56:02.805Z,44.32
2023-02-15T07:58:47.818Z,43.78
2023-02-15T08:01:14.574Z,44.09
2023-02-15T08:03:41.041Z,42.87
2023-02-15T08:06:07.493Z,42.79
2023-02-15T08:08:37.049Z,43.42
2023-02-15T08:11:22.895Z,43.11
2023-02-15T08:13:56.029Z,43.56
2023-02-15T08:16:28.555Z,44.06
2023-02-15T08:18:54.912Z,44.39
2023-02-15T08:21:23.302Z,44.12
2023-02-15T08:23:51.580Z,43.62
2023-02-15T08:26:18.595Z,40.98
2023-02-15T08:28:45.315Z,38.97
2023-02-15T08:31:12.214Z,40.25
2023-02-15T08:33:39.059Z,42.58
2023-02-15T08:36:06.052Z,44.26
2023-02-15T08:38:33.594Z,44.70
2023-02-15T08:41:32.380Z,44.29
2023-02-15T08:43:59.523Z,44.33
2023-02-15T08:46:26.602Z,44.53
2023-02-15T08:48:52.928Z,44.66
2023-02-15T08:51:20.042Z,44.61
2023-02-15T08:53:47.316Z,44.53
2023-02-15T08:56:13.652Z,44.65
2023-02-15T08:58:40.000Z,45.08
2023-02-15T09:01:09.979Z,44.88
2023-02-15T09:03:36.364Z,45.21
2023-02-15T09:06:02.742Z,45.33
2023-02-15T09:08:29.092Z,45.07
2023-02-15T09:10:55.437Z,45.66
2023-02-15T09:13:21.782Z,45.68
2023-02-15T09:15:48.156Z,45.77
2023-02-15T09:18:17.968Z,45.73
2023-02-15T09:20:45.358Z,46.02
2023-02-15T09:23:21.911Z,46.03
2023-02-15T09:25:53.031Z,46.18
2023-02-15T09:28:19.391Z,46.05
2023-02-15T09:30:45.802Z,45.89
2023-02-15T09:33:12.196Z,46.13
2023-02-15T09:35:38.519Z,46.01
2023-02-15T09:38:04.853Z,46.21
2023-02-15T09:40:32.400Z,46.22
2023-02-15T09:43:18.913Z,46.38
2023-02-15T09:45:52.452Z,46.88
2023-02-15T09:48:22.666Z,46.81
2023-02-15T09:50:51.646Z,46.88
2023-02-15T09:53:27.001Z,46.82
2023-02-15T09:55:59.767Z,46.62
2023-02-15T09:58:32.255Z,47.23
2023-02-15T10:01:11.187Z,47.11
2023-02-15T10:03:40.629Z,47.18
2023-02-15T10:06:06.916Z,47.11
2023-02-15T10:08:39.943Z,46.99
2023-02-15T10:11:35.283Z,47.25
2023-02-15T10:14:09.093Z,47.22
2023-02-15T10:16:35.442Z,47.35
2023-02-15T10:19:04.578Z,47.31
2023-02-15T10:21:40.254Z,47.38
2023-02-15T10:24:14.817Z,47.47
2023-02-15T10:26:45.091Z,47.89
2023-02-15T10:29:21.276Z,47.48
2023-02-15T10:31:51.882Z,47.21
2023-02-15T10:34:23.262Z,47.54
2023-02-15T10:36:54.076Z,47.50
2023-02-15T10:39:24.121Z,47.49
2023-02-15T10:42:00.568Z,47.63
2023-02-15T10:44:30.783Z,47.48
2023-02-15T10:47:06.093Z,47.53
2023-02-15T10:49:44.621Z,47.60
2023-02-15T10:52:15.307Z,47.59
2023-02-15T10:54:41.615Z,47.55
2023-02-15T10:57:12.140Z,47.47
2023-02-15T10:59:38.409Z,47.59
2023-02-15T11:02:08.757Z,47.63
2023-02-15T11:04:52.329Z,47.41
2023-02-15T11:07:24.139Z,47.38
2023-02-15T11:09:51.872Z,47.48
2023-02-15T11:12:19.896Z,47.56
2023-02-15T11:15:05.428Z,47.54
2023-02-15T11:17:36.372Z,47.61
2023-02-15T11:20:21.521Z,47.62
2023-02-15T11:22:48.530Z,47.59
2023-02-15T11:25:29.610Z,47.50
2023-02-15T11:27:55.924Z,47.32
2023-02-15T11:30:23.229Z,47.38
2023-02-15T11:32:51.120Z,47.41
2023-02-15T11:35:25.651Z,47.44
2023-02-15T11:37:54.144Z,47.41
2023-02-15T11:40:23.075Z,47.43
2023-02-15T11:42:52.427Z,47.66
2023-02-15T11:45:20.966Z,47.42
2023-02-15T11:47:47.297Z,47.46
2023-02-15T11:50:18.779Z,47.65
2023-02-15T11:52:45.096Z,47.45
2023-02-15T11:55:15.504Z,47.54
2023-02-15T11:57:43.093Z,47.48
2023-02-15T12:00:15.604Z,47.60
2023-02-15T12:02:43.325Z,47.59
2023-02-15T12:05:13.284Z,47.72
2023-02-15T12:07:44.418Z,47.58
2023-02-15T12:10:14.956Z,47.86
2023-02-15T12:12:41.296Z,47.69
2023-02-15T12:15:08.271Z,47.56
2023-02-15T12:17:41.617Z,47.86
2023-02-15T12:20:14.005Z,47.54
2023-02-15T12:22:40.334Z,47.75
2023-02-15T12:25:25.740Z,47.77
2023-02-15T12:27:52.080Z,47.73
2023-02-15T12:30:22.399Z,47.92
2023-02-15T12:32:55.829Z,47.76
2023-02-15T12:35:31.692Z,47.88
2023-02-15T12:38:01.232Z,47.91
2023-02-15T12:40:31.266Z,48.03
2023-02-15T12:42:58.617Z,48.01
2023-02-15T12:45:30.351Z,48.07
2023-02-15T12:48:17.904Z,48.30
2023-02-15T12:50:45.235Z,48.21
2023-02-15T12:53:27.236Z,48.04
2023-02-15T12:56:03.764Z,48.26
2023-02-15T12:58:36.751Z,48.45
2023-02-15T13:01:16.591Z,48.25
2023-02-15T13:03:56.275Z,48.33
2023-02-15T13:06:22.605Z,48.38
2023-02-15T13:08:50.082Z,48.44
2023-02-15T13:11:21.129Z,48.36
2023-02-15T13:13:57.172Z,48.38
2023-02-15T13:16:31.600Z,48.63
2023-02-15T13:18:57.933Z,48.43
2023-02-15T13:21:33.114Z,48.51
2023-02-15T13:24:01.241Z,48.32
2023-02-15T13:26:27.668Z,48.42
2023-02-15T13:28:55.359Z,48.41
2023-02-15T13:31:22.128Z,48.67
2023-02-15T13:33:59.079Z,48.54
2023-02-15T13:36:30.753Z,48.54
2023-02-15T13:39:04.972Z,48.51
2023-02-15T13:41:36.722Z,48.65
2023-02-15T13:44:10.555Z,48.43
2023-02-15T13:46:43.752Z,48.63
2023-02-15T13:49:13.850Z,48.61
2023-02-15T13:51:42.752Z,48.45
2023-02-15T13:54:27.955Z,48.83
2023-02-15T13:57:13.149Z,48.67
2023-02-15T13:59:59.752Z,48.88
2023-02-15T14:02:37.661Z,48.84
2023-02-15T14:05:07.719Z,48.73
2023-02-15T14:07:52.631Z,48.63
2023-02-15T14:10:39.429Z,48.59
2023-02-15T14:13:18.436Z,48.52
2023-02-15T14:16:08.085Z,48.65
2023-02-15T14:18:42.220Z,48.87
2023-02-15T14:21:15.338Z,48.77
2023-02-15T14:24:00.509Z,48.78
2023-02-15T14:26:59.243Z,48.71
2023-02-15T14:29:25.557Z,48.75
2023-02-15T14:31:54.326Z,48.72
2023-02-15T14:34:23.064Z,48.69
2023-02-15T14:36:50.468Z,48.91
2023-02-15T14:39:54.289Z,48.97
2023-02-15T14:42:37.768Z,48.88
2023-02-15T14:45:21.206Z,48.99
2023-02-15T14:47:49.894Z,48.77
2023-02-15T14:50:31.437Z,48.93
2023-02-15T14:53:16.197Z,49.06
2023-02-15T14:55:42.525Z,48.92
2023-02-15T14:58:11.836Z,48.88
2023-02-15T15:00:39.126Z,49.11
2023-02-15T15:03:12.709Z,49.08
2023-02-15T15:05:47.252Z,49.06
2023-02-15T15:08:22.611Z,48.95
2023-02-15T15:10:49.622Z,48.99
2023-02-15T15:13:31.146Z,49.14
2023-02-15T15:15:57.597Z,49.03
2023-02-15T15:18:42.817Z,49.18
2023-02-15T15:21:09.238Z,49.22
2023-02-15T15:23:42.629Z,49.02
2023-02-15T15:26:22.753Z,48.98
2023-02-15T15:28:48.998Z,49.24
2023-02-15T15:31:19.948Z,49.17
2023-02-15T15:33:51.741Z,49.27
2023-02-15T15:36:23.999Z,49.05
2023-02-15T15:39:09.332Z,49.20
2023-02-15T15:41:45.431Z,49.24
2023-02-15T15:44:29.840Z,49.28
2023-02-15T15:47:00.027Z,49.18
2023-02-15T15:49:28.524Z,49.25
2023-02-15T15:51:55.096Z,49.42
2023-02-15T15:54:22.033Z,49.33
2023-02-15T15:56:49.564Z,49.38
2023-02-15T15:59:23.291Z,49.29
2023-02-15T16:01:49.756Z,49.25
2023-02-15T16:04:26.881Z,49.42
2023-02-15T16:06:53.226Z,49.50
2023-02-15T16:09:20.461Z,49.50
2023-02-15T16:11:47.655Z,49.49
2023-02-15T16:14:15.134Z,49.66
2023-02-15T16:16:41.526Z,49.67
2023-02-15T16:19:15.716Z,49.56
2023-02-15T16:21:42.035Z,49.57
2023-02-15T16:24:15.128Z,49.52
2023-02-15T16:26:47.387Z,49.50
2023-02-15T16:29:16.934Z,49.42
2023-02-15T16:31:43.412Z,49.49
2023-02-15T16:34:18.861Z,49.47
2023-02-15T16:36:45.185Z,49.57
2023-02-15T16:39:17.851Z,49.51
2023-02-15T16:41:46.949Z,49.42
2023-02-15T16:44:15.885Z,49.05
2023-02-15T16:46:43.010Z,49.52
2023-02-15T16:49:15.433Z,49.33
2023-02-15T16:51:42.102Z,49.23
2023-02-15T16:54:08.727Z,49.47
2023-02-15T16:56:35.108Z,49.52
2023-02-15T16:59:01.466Z,49.42
2023-02-15T17:01:29.120Z,49.34
2023-02-15T17:04:14.161Z,49.36
2023-02-15T17:06:40.534Z,49.52
2023-02-15T17:09:07.282Z,49.37
2023-02-15T17:11:34.444Z,49.29
2023-02-15T17:14:07.639Z,49.17
2023-02-15T17:16:37.335Z,48.99
2023-02-15T17:19:08.699Z,49.36
2023-02-15T17:21:37.623Z,49.29
2023-02-15T17:24:05.110Z,49.35
2023-02-15T17:26:32.297Z,49.46
2023-02-15T17:28:59.313Z,49.52
2023-02-15T17:31:29.362Z,49.57
2023-02-15T17:33:57.450Z,49.58
2023-02-15T17:36:24.524Z,49.45
2023-02-15T17:39:12.221Z,49.46
2023-02-15T17:41:38.705Z,49.43
2023-02-15T17:44:05.077Z,49.39
2023-02-15T17:46:35.487Z,49.28
2023-02-15T17:49:02.012Z,49.20
2023-02-15T17:51:28.346Z,49.09
2023-02-15T17:54:13.459Z,49.09
2023-02-15T17:56:39.828Z,49.16
2023-02-15T17:59:07.594Z,49.09
2023-02-15T18:01:55.868Z,48.93
2023-02-15T18:04:40.690Z,48.75
2023-02-15T18:07:27.687Z,48.91
2023-02-15T18:10:12.527Z,48.87
2023-02-15T18:12:39.158Z,48.78
2023-02-15T18:15:05.868Z,48.81
2023-02-15T18:17:45.312Z,48.83
2023-02-15T18:20:21.803Z,48.67
2023-02-15T18:22:48.139Z,48.90
2023-02-15T18:25:14.857Z,48.72
2023-02-15T18:27:41.184Z,48.67
2023-02-15T18:30:08.439Z,48.74
2023-02-15T18:32:35.710Z,48.61
2023-02-15T18:35:02.049Z,48.58
2023-02-15T18:37:30.231Z,48.52
2023-02-15T18:39:56.620Z,48.74
2023-02-15T18:42:31.502Z,48.71
2023-02-15T18:44:58.439Z,48.48
2023-02-15T18:47:24.765Z,48.63
2023-02-15T18:49:51.085Z,48.48
2023-02-15T18:52:17.918Z,48.54
2023-02-15T18:54:44.899Z,48.48
2023-02-15T18:57:12.982Z,48.63
2023-02-15T18:59:39.307Z,48.41
2023-02-15T19:02:11.024Z,48.34
2023-02-15T19:04:37.371Z,48.26
2023-02-15T19:07:03.712Z,48.40
2023-02-15T19:09:30.084Z,48.35
2023-02-15T19:11:56.462Z,48.39
2023-02-15T19:14:29.658Z,48.26
2023-02-15T19:16:56.435Z,48.33
2023-02-15T19:19:22.839Z,48.26
2023-02-15T19:21:49.306Z,48.23
2023-02-15T19:24:19.148Z,48.27
2023-02-15T19:26:46.198Z,48.25
2023-02-15T19:29:13.500Z,48.46
2023-02-15T19:31:40.018Z,48.60
2023-02-15T19:34:11.149Z,48.19
2023-02-15T19:36:37.485Z,47.82
2023-02-15T19:39:03.829Z,47.85
2023-02-15T19:41:30.808Z,48.00
2023-02-15T19:43:57.169Z,47.97
2023-02-15T19:46:23.595Z,48.10
2023-02-15T19:48:51.091Z,47.02
2023-02-15T19:51:17.499Z,46.96
2023-02-15T19:53:43.843Z,46.58
2023-02-15T19:56:11.063Z,46.72
2023-02-15T19:58:37.393Z,47.11
2023-02-15T20:01:04.110Z,47.29
2023-02-15T20:03:30.701Z,47.75
2023-02-15T20:05:57.023Z,47.66
2023-02-15T20:08:23.431Z,47.75
2023-02-15T20:10:49.868Z,47.60
2023-02-15T20:13:16.458Z,47.76
2023-02-15T20:15:42.909Z,47.67
2023-02-15T20:18:09.319Z,47.80
2023-02-15T20:20:45.671Z,47.99
2023-02-15T20:23:18.591Z,47.88
2023-02-15T20:25:44.923Z,47.95
2023-02-15T20:28:14.855Z,47.96
2023-02-15T20:30:41.199Z,47.78
2023-02-15T20:33:07.610Z,47.79
2023-02-15T20:35:33.955Z,47.90
2023-02-15T20:38:01.129Z,48.03
2023-02-15T20:40:28.064Z,48.04
2023-02-15T20:42:54.407Z,47.94
2023-02-15T20:45:21.475Z,48.06
2023-02-15T20:47:50.683Z,47.85
2023-02-15T20:50:20.744Z,48.01
2023-02-15T20:52:47.188Z,48.00
2023-02-15T20:55:14.200Z,48.03
2023-02-15T20:57:40.529Z,48.14
2023-02-15T21:00:08.583Z,48.14
2023-02-15T21:02:34.908Z,47.85
2023-02-15T21:05:01.828Z,47.88
2023-02-15T21:07:28.205Z,47.99
2023-02-15T21:09:54.526Z,47.92
2023-02-15T21:12:22.082Z,48.06
2023-02-15T21:14:48.572Z,47.89
2023-02-15T21:17:15.103Z,48.11
2023-02-15T21:19:41.586Z,47.79
2023-02-15T21:22:10.437Z,48.03
2023-02-15T21:24:36.768Z,48.23
2023-02-15T21:27:03.470Z,48.06
2023-02-15T21:29:29.891Z,48.27
2023-02-15T21:31:58.368Z,48.17
2023-02-15T21:34:24.852Z,48.14
2023-02-15T21:36:51.230Z,48.13
2023-02-15T21:39:24.055Z,48.02
2023-02-15T21:42:09.310Z,47.97
2023-02-15T21:44:54.156Z,48.18
2023-02-15T21:47:40.038Z,47.99
2023-02-15T21:50:26.790Z,48.11
2023-02-15T21:52:53.232Z,48.07
2023-02-15T21:55:19.563Z,47.99
2023-02-15T21:57:45.885Z,48.06
2023-02-15T22:00:16.701Z,47.72
2023-02-15T22:02:43.257Z,47.85
2023-02-15T22:05:12.960Z,47.91
2023-02-15T22:07:39.285Z,47.85
2023-02-15T22:10:05.879Z,47.88
2023-02-15T22:12:32.219Z,47.90
2023-02-15T22:14:58.623Z,47.90
2023-02-15T22:17:25.746Z,47.89
2023-02-15T22:19:52.108Z,47.97
2023-02-15T22:22:18.455Z,48.05
2023-02-15T22:24:44.793Z,48.18
2023-02-15T22:27:31.475Z,48.08
2023-02-15T22:29:57.804Z,48.18
2023-02-15T22:32:25.058Z,48.07
2023-02-15T22:34:51.597Z,47.94
2023-02-15T22:37:17.956Z,47.83
2023-02-15T22:39:44.294Z,47.84
2023-02-15T22:42:16.960Z,47.78
2023-02-15T22:44:43.288Z,47.70
2023-02-15T22:47:10.752Z,47.65
2023-02-15T22:49:37.181Z,47.40
2023-02-15T22:52:05.771Z,47.26
2023-02-15T22:54:32.108Z,47.30
2023-02-15T22:56:58.443Z,47.25
2023-02-15T22:59:31.968Z,47.25
2023-02-15T23:01:58.334Z,47.30
2023-02-15T23:04:25.298Z,47.36
2023-02-15T23:06:53.249Z,47.31
2023-02-15T23:09:19.682Z,47.49
2023-02-15T23:11:46.193Z,47.50
2023-02-15T23:14:29.077Z,47.09
2023-02-15T23:16:55.483Z,47.07
2023-02-15T23:19:21.840Z,47.18
2023-02-15T23:21:48.196Z,47.14
2023-02-15T23:24:18.354Z,47.09
2023-02-15T23:26:44.799Z,47.21
2023-02-15T23:29:20.712Z,47.19
2023-02-15T23:31:48.137Z,47.08
2023-02-15T23:34:19.630Z,47.09
2023-02-15T23:36:45.962Z,47.22
2023-02-15T23:39:34.658Z,47.15
2023-02-15T23:42:01.810Z,47.18
2023-02-15T23:44:28.141Z,47.28
2023-02-15T23:46:56.396Z,47.45
2023-02-15T23:49:22.845Z,47.44
2023-02-15T23:51:49.936Z,47.37
2023-02-15T23:54:16.701Z,47.62
2023-02-15T23:56:43.162Z,47.45
2023-02-15T23:59:12.156Z,47.63
